createdAt,value
2024-02-13T05:41:06.859Z,99655.59
2024-02-13T05:44:09.484Z,99655.59
2024-02-13T05:47:12.370Z,99652.47
2024-02-13T05:50:17.710Z,99667.16
2024-02-13T05:53:20.631Z,99673.06
2024-02-13T05:56:27.569Z,99678.16
2024-02-13T05:59:33.126Z,99683.44
2024-02-13T06:02:35.730Z,99685.12
2024-02-13T06:05:38.466Z,99698.88
2024-02-13T06:08:41.113Z,99696.31
2024-02-13T06:11:43.782Z,99703.37
2024-02-13T06:14:48.381Z,99705.00
2024-02-13T06:17:51.058Z,99712.69
2024-02-13T06:20:55.220Z,99727.37
2024-02-13T06:23:57.823Z,99730.88
2024-02-13T06:27:00.437Z,99733.53
2024-02-13T06:30:03.817Z,99736.09
2024-02-13T06:33:10.037Z,99749.91
2024-02-13T06:36:12.618Z,99750.75
2024-02-13T06:39:17.015Z,99756.84
2024-02-13T06:42:20.385Z,99751.63
2024-02-13T06:45:22.867Z,99758.59
2024-02-13T06:48:25.535Z,99764.66
2024-02-13T06:51:28.372Z,99761.16
2024-02-13T06:54:31.863Z,99765.44
2024-02-13T06:57:36.410Z,99762.78
2024-02-13T07:00:38.939Z,99774.03
2024-02-13T07:03:43.022Z,99767.09
2024-02-13T07:06:58.507Z,99762.81
2024-02-13T07:10:08.988Z,99778.22
2024-02-13T07:13:29.994Z,99774.72
2024-02-13T07:16:40.227Z,99778.91
2024-02-13T07:19:43.746Z,99784.03
2024-02-13T07:22:47.506Z,99785.75
2024-02-13T07:25:50.133Z,99784.81
2024-02-13T07:28:53.230Z,99793.38
2024-02-13T07:31:55.927Z,99796.63
2024-02-13T07:35:04.387Z,99801.69
2024-02-13T07:38:09.882Z,99803.19
2024-02-13T07:41:12.618Z,99811.72
2024-02-13T07:44:15.357Z,99808.97
2024-02-13T07:47:18.007Z,99805.41
2024-02-13T07:50:22.607Z,99813.00
2024-02-13T07:53:26.160Z,99813.00
2024-02-13T07:56:31.729Z,99814.53
2024-02-13T07:59:34.275Z,99832.59
2024-02-13T08:02:36.865Z,99817.75
2024-02-13T08:05:40.963Z,99824.63
2024-02-13T08:08:43.587Z,99821.84
2024-02-13T08:11:46.481Z,99815.69
2024-02-13T08:14:49.594Z,99819.13
2024-02-13T08:17:52.085Z,99831.97
2024-02-13T08:20:54.821Z,99826.72
2024-02-13T08:23:57.609Z,99838.69
2024-02-13T08:27:00.901Z,99836.81
2024-02-13T08:30:07.987Z,99844.44
2024-02-13T08:33:11.928Z,99851.28
2024-02-13T08:36:14.603Z,99849.31
2024-02-13T08:39:17.064Z,99853.59
2024-02-13T08:42:19.804Z,99858.56
2024-02-13T08:45:24.730Z,99846.25
2024-02-13T08:48:30.987Z,99859.84
2024-02-13T08:51:36.776Z,99861.38
2024-02-13T08:54:42.767Z,99872.31
2024-02-13T08:57:47.193Z,99868.81
2024-02-13T09:00:51.537Z,99869.50
2024-02-13T09:03:57.265Z,99872.97
2024-02-13T09:07:00.994Z,99878.97
2024-02-13T09:10:03.730Z,99880.47
2024-02-13T09:13:07.478Z,99879.50
2024-02-13T09:16:13.230Z,99876.63
2024-02-13T09:19:16.844Z,99875.75
2024-02-13T09:22:19.842Z,99885.81
2024-02-13T09:25:23.053Z,99884.19
2024-02-13T09:28:26.438Z,99886.63
2024-02-13T09:31:29.650Z,99883.66
2024-02-13T09:34:33.162Z,99921.25
2024-02-13T09:37:44.613Z,99894.97
2024-02-13T09:40:50.136Z,99904.16
2024-02-13T09:43:53.050Z,99904.22
2024-02-13T09:46:55.493Z,99906.56
2024-02-13T09:49:57.971Z,99901.28
2024-02-13T09:53:01.645Z,99915.06
2024-02-13T09:56:04.253Z,99929.81
2024-02-13T09:59:08.064Z,99928.28
2024-02-13T10:02:10.478Z,99926.03
2024-02-13T10:05:13.029Z,99921.34
2024-02-13T10:08:18.047Z,99919.72
2024-02-13T10:11:30.999Z,99925.16
2024-02-13T10:14:33.624Z,99926.66
2024-02-13T10:17:36.493Z,99927.47
2024-02-13T10:20:40.432Z,99923.81
2024-02-13T10:23:43.001Z,99926.63
2024-02-13T10:26:45.901Z,99923.22
2024-02-13T10:29:48.536Z,99925.34
2024-02-13T10:32:51.172Z,99924.00
2024-02-13T10:35:58.940Z,99915.75
2024-02-13T10:39:02.754Z,99919.19
2024-02-13T10:42:10.120Z,99923.34
2024-02-13T10:45:12.949Z,99930.34
2024-02-13T10:48:30.280Z,99933.91
2024-02-13T10:51:35.167Z,99929.25
2024-02-13T10:54:38.840Z,99931.31
2024-02-13T10:57:41.418Z,99928.19
2024-02-13T11:00:43.948Z,99927.09
2024-02-13T11:03:46.751Z,99934.63
2024-02-13T11:06:49.338Z,99932.00
2024-02-13T11:09:51.781Z,99931.59
2024-02-13T11:12:55.881Z,99938.44
2024-02-13T11:15:59.354Z,99945.94
2024-02-13T11:19:22.161Z,99931.22
2024-02-13T11:22:38.361Z,99938.09
2024-02-13T11:25:43.753Z,99937.94
2024-02-13T11:28:48.268Z,99940.09
2024-02-13T11:31:59.468Z,99933.19
2024-02-13T11:35:07.432Z,99939.91
2024-02-13T11:38:17.576Z,99941.63
2024-02-13T11:41:21.801Z,99935.03
2024-02-13T11:44:24.933Z,99955.78
2024-02-13T11:47:28.451Z,99931.34
2024-02-13T11:50:31.251Z,99934.28
2024-02-13T11:53:35.068Z,99922.84
2024-02-13T11:56:37.678Z,99929.62
2024-02-13T11:59:42.362Z,99927.66
2024-02-13T12:02:56.037Z,99923.19
2024-02-13T12:05:59.398Z,99921.09
2024-02-13T12:09:02.008Z,99919.88
2024-02-13T12:12:06.243Z,99932.56
2024-02-13T12:15:12.240Z,99933.56
2024-02-13T12:18:18.934Z,99920.62
2024-02-13T12:21:21.532Z,99925.34
2024-02-13T12:24:24.402Z,99929.44
2024-02-13T12:27:26.885Z,99928.00
2024-02-13T12:30:38.820Z,99923.50
2024-02-13T12:33:43.081Z,99920.59
2024-02-13T12:36:46.311Z,99926.84
2024-02-13T12:39:49.853Z,99927.00
2024-02-13T12:42:56.441Z,99935.97
2024-02-13T12:46:06.847Z,99938.28
2024-02-13T12:49:11.710Z,99930.34
2024-02-13T12:52:23.655Z,99919.34
2024-02-13T12:55:27.102Z,99930.53
2024-02-13T12:58:29.501Z,99927.19
2024-02-13T13:01:39.180Z,99944.50
2024-02-13T13:04:42.190Z,99940.63
2024-02-13T13:07:47.458Z,99943.94
2024-02-13T13:10:50.651Z,99959.53
2024-02-13T13:13:55.820Z,99955.06
2024-02-13T13:16:58.412Z,99961.38
2024-02-13T13:20:01.550Z,99959.72
2024-02-13T13:23:06.455Z,99972.06
2024-02-13T13:26:10.075Z,99973.53
2024-02-13T13:29:15.093Z,99980.28
2024-02-13T13:32:18.717Z,99988.16
2024-02-13T13:35:23.001Z,100001.06
2024-02-13T13:38:26.744Z,99994.37
2024-02-13T13:41:31.795Z,99993.16
2024-02-13T13:44:35.457Z,99996.31
2024-02-13T13:47:38.333Z,99998.66
2024-02-13T13:50:41.448Z,100012.03
2024-02-13T13:53:45.263Z,100016.31
2024-02-13T13:56:47.846Z,100016.37
2024-02-13T13:59:50.396Z,100020.47
2024-02-13T14:02:52.987Z,100016.75
2024-02-13T14:05:56.458Z,100022.50
2024-02-13T14:08:59.015Z,100023.56
2024-02-13T14:12:06.677Z,100029.16
2024-02-13T14:15:09.203Z,100032.81
2024-02-13T14:18:13.059Z,100036.38
2024-02-13T14:21:15.764Z,100028.59
2024-02-13T14:24:18.164Z,100028.66
2024-02-13T14:27:20.655Z,100027.75
2024-02-13T14:30:23.152Z,100038.31
2024-02-13T14:33:25.829Z,100042.78
2024-02-13T14:36:28.533Z,100047.19
2024-02-13T14:39:31.029Z,100045.56
2024-02-13T14:42:34.097Z,100057.91
2024-02-13T14:45:37.144Z,100062.53
2024-02-13T14:48:39.891Z,100062.72
2024-02-13T14:51:42.449Z,100072.38
2024-02-13T14:54:48.544Z,100068.28
2024-02-13T14:58:00.700Z,100070.13
2024-02-13T15:01:13.930Z,100070.22
2024-02-13T15:04:16.483Z,100073.81
2024-02-13T15:07:20.159Z,100075.47
2024-02-13T15:10:23.318Z,100084.13
2024-02-13T15:13:25.799Z,100078.13
2024-02-13T15:16:29.527Z,100081.56
2024-02-13T15:19:32.249Z,100087.78
2024-02-13T15:22:34.917Z,100087.00
2024-02-13T15:25:37.544Z,100089.56
2024-02-13T15:28:40.106Z,100091.28
2024-02-13T15:31:43.880Z,100095.78
2024-02-13T15:34:57.936Z,100112.34
2024-02-13T15:38:19.528Z,100114.09
2024-02-13T15:41:41.101Z,100118.44
2024-02-13T15:45:02.627Z,100128.00
2024-02-13T15:48:08.408Z,100134.97
2024-02-13T15:51:10.978Z,100128.94
2024-02-13T15:54:13.807Z,100129.84
2024-02-13T15:57:17.172Z,100153.66
2024-02-13T16:00:28.126Z,100150.91
